TimeCST,TemperatureF,Dew PointF,Humidity,Sea Level PressureIn,VisibilityMPH,Wind Direction,Wind SpeedMPH,Gust SpeedMPH,PrecipitationIn,Events,Conditions,WindDirDegrees,DateUTC
12:52 AM,37.9,33.1,83,30.42,10.0,NNW,6.9,-,N/A,,Clear,330,2014-01-03 06:52:00
1:52 AM,36.0,33.1,89,30.41,10.0,NNW,5.8,-,N/A,,Clear,330,2014-01-03 07:52:00
2:52 AM,36.0,32.0,86,30.41,10.0,NW,8.1,-,N/A,,Clear,320,2014-01-03 08:52:00
3:52 AM,36.0,32.0,86,30.40,10.0,NW,6.9,-,N/A,,Clear,320,2014-01-03 09:52:00
4:52 AM,35.1,32.0,89,30.39,10.0,NW,6.9,-,N/A,,Clear,320,2014-01-03 10:52:00
5:52 AM,35.1,32.0,89,30.39,10.0,NW,8.1,-,N/A,,Clear,310,2014-01-03 11:52:00
6:52 AM,35.1,32.0,89,30.40,10.0,NW,8.1,-,N/A,,Clear,310,2014-01-03 12:52:00
7:52 AM,36.0,32.0,86,30.41,10.0,NW,8.1,-,N/A,,Clear,310,2014-01-03 13:52:00
8:52 AM,42.1,34.0,73,30.42,10.0,NNW,8.1,-,N/A,,Clear,330,2014-01-03 14:52:00
9:52 AM,46.9,37.0,68,30.43,10.0,North,9.2,-,N/A,,Clear,350,2014-01-03 15:52:00
10:52 AM,51.1,41.0,68,30.41,10.0,NNW,9.2,-,N/A,,Clear,330,2014-01-03 16:52:00
11:52 AM,57.0,45.0,64,30.37,10.0,North,10.4,-,N/A,,Clear,360,2014-01-03 17:52:00
12:52 PM,60.1,46.9,62,30.32,10.0,Variable,6.9,-,N/A,,Clear,0,2014-01-03 18:52:00
1:52 PM,64.9,46.9,52,30.27,10.0,NE,8.1,-,N/A,,Clear,50,2014-01-03 19:52:00
2:52 PM,66.0,46.0,48,30.26,10.0,East,11.5,-,N/A,,Clear,90,2014-01-03 20:52:00
3:52 PM,64.0,46.9,54,30.24,10.0,East,9.2,17.3,N/A,,Clear,80,2014-01-03 21:52:00
4:52 PM,62.1,48.0,60,30.23,10.0,East,10.4,-,N/A,,Clear,80,2014-01-03 22:52:00
5:52 PM,55.9,48.0,75,30.22,10.0,East,6.9,-,N/A,,Clear,80,2014-01-03 23:52:00
6:52 PM,53.1,48.9,86,30.21,10.0,East,4.6,-,N/A,,Clear,80,2014-01-04 00:52:00
7:52 PM,53.1,48.0,83,30.21,10.0,ENE,4.6,-,N/A,,Clear,70,2014-01-04 01:52:00
8:52 PM,51.1,48.0,89,30.20,10.0,East,4.6,-,N/A,,Clear,80,2014-01-04 02:52:00
9:52 PM,50.0,48.0,93,30.19,10.0,Calm,Calm,-,N/A,,Clear,0,2014-01-04 03:52:00
10:52 PM,48.9,48.0,97,30.17,9.0,Calm,Calm,-,N/A,,Clear,0,2014-01-04 04:52:00
11:52 PM,50.0,48.0,93,30.15,10.0,Calm,Calm,-,N/A,,Scattered Clouds,0,2014-01-04 05:52:00